logo
App data

Commander: Conquest of the Americas

Combining elements from both trading and strategy games, Commander: Conquest of the Americas will appeal to a wide range of players. Players take charge of one of the many European powers aiming to conquer the New World.
Store | Hub | SteamDB | Site
Developer: Nitro Games Publisher: Nitro Games
Genre: Strategy
Languages: English, French, German, Spanish - Spain
Tags: Strategy (42), Naval Combat (25), Naval (19), Pirates (5)
Category: Single-player, Steam Achievements
Release date: Jul 30, 2010
Price: $9.99
Old userscore: 48% Metascore: 68%
Owners: 20,000 .. 50,000
Followers: 0
Peak concurrent players yesterday: 3

Steam Spy is still in beta, so expect major bugs.

Owners data:

Access restricted.

This feature is only available to users with special access rights. Sorry.

If you want to proceed, you need to register or log in first and then back Steam Spy on Patreon. Look for Indie or Pro pledge.

Don't forget to use the same email as on Steam Spy!

If you've recently backed Steam Spy on Patreon, please note, that it might take around 15 minutes for your access rights to sync. In most cases you'll need to re-login on Steam Spy too.

Audience in 2 weeks:

Access restricted.

This feature is only available to users with special access rights. Sorry.

If you want to proceed, you need to register or log in first and then back Steam Spy on Patreon. Look for Indie or Pro pledge.

Don't forget to use the same email as on Steam Spy!

If you've recently backed Steam Spy on Patreon, please note, that it might take around 15 minutes for your access rights to sync. In most cases you'll need to re-login on Steam Spy too.

Peak daily concurrent players:

CCU data courtesy of SteamDB. Used with permission.

Hourly concurrent players:

Daily Twitch stats:

Hourly Twitch stats:

Followers over time

Access restricted.

This feature is only available to users with special access rights. Sorry.

If you want to proceed, you need to register or log in first and then back Steam Spy on Patreon. Look for Indie or Pro pledge.

Don't forget to use the same email as on Steam Spy!

If you've recently backed Steam Spy on Patreon, please note, that it might take around 15 minutes for your access rights to sync. In most cases you'll need to re-login on Steam Spy too.

Views for top 50 videos on YouTube for this game:

Games similar to this one:

# Game Release date
Price
Score rank
(Userscore / Metascore)
Owners
Players
Playtime (Median)
1 Spirits of Xanadu Mar 26, 2015 $4.99N/A (N/A)0 .. 20,0000%00:00 (00:00)
2 Stonerid Dec 18, 2013 $4.99N/A (N/A)20,000 .. 50,0000%00:00 (00:00)
3 Commander: The Great War Nov 12, 2012 $29.99N/A (N/A)20,000 .. 50,0000%00:00 (00:00)
4 Wave of Darkness Nov 5, 2015 $29.99N/A (N/A)20,000 .. 50,0000%00:00 (00:00)
5 Warhammer 40,000: Armageddon Nov 26, 2014 $39.99N/A (N/A/68%)50,000 .. 100,0000%00:00 (00:00)
6 Prophour23 Oct 22, 2014 $9.99N/A (N/A)20,000 .. 50,0000%00:00 (00:00)
7 Hell Nov 13, 2014 $29.99N/A (N/A)0 .. 20,0000%00:00 (00:00)
8 Hunters Of The Dead Sep 4, 2014 $4.99N/A (N/A)0 .. 20,0000%00:00 (00:00)
9 Sovereignty: Crown of Kings Feb 2, 2017 $24.99N/A (N/A)0 .. 20,0000%00:00 (00:00)
10 Platypus II Mar 17, 2007 $3.99N/A (N/A)200,000 .. 500,0000%00:00 (00:00)
11 Ys VI: The Ark of Napishtim Apr 28, 2015 $19.99N/A (N/A/76%)50,000 .. 100,0000%00:00 (00:00)
12 The Stalin Subway: Red Veil Oct 5, 2006 $2.99N/A (N/A)50,000 .. 100,0000%00:00 (00:00)
13 Khet 2.0 Oct 1, 2014 $9.99N/A (N/A)100,000 .. 200,0000%00:00 (00:00)
14 The Stalin Subway Oct 5, 2006 $3.99N/A (N/A)100,000 .. 200,0000%00:00 (00:00)
15 Supreme Ruler Ultimate Oct 17, 2014 $19.99N/A (N/A)50,000 .. 100,0000%00:00 (00:00)
16 Super Trench Attack! Jul 24, 2014 $4.99N/A (N/A)50,000 .. 100,0000%00:00 (00:00)
17 Foresight Nov 28, 2014 $4.99N/A (N/A)0 .. 20,0000%00:00 (00:00)
18 Mad Combat Marines Jul 13, 2016 $0.99N/A (N/A)50,000 .. 100,0000%00:00 (00:00)
19 Meridian: New World Apr 4, 2014 $6.99N/A (N/A/43%)100,000 .. 200,0000%00:00 (00:00)
20 Extravaganza Rising Jul 21, 2016 N/AN/A (N/A)0 .. 20,0000%00:00 (00:00)
21 Last Knight: Rogue Rider Edition Oct 3, 2014 $7.99N/A (N/A)20,000 .. 50,0000%00:00 (00:00)
22 Smithy Jun 3, 2016 $0.99N/A (N/A)20,000 .. 50,0000%00:00 (00:00)
23 Gun Metal Sep 23, 2003 $2.99N/A (N/A)200,000 .. 500,0000%00:00 (00:00)
24 Bulletstorm: Full Clip Edition Apr 7, 2017 $39.99N/A (N/A/76%)200,000 .. 500,0000%00:00 (00:00)
25 Pixel Boy and the Ever Expanding Dungeon May 30, 2014 N/AN/A (N/A)20,000 .. 50,0000%00:00 (00:00)
26 Mr. Shifty Apr 13, 2017 $14.99N/A (N/A)100,000 .. 200,0000%00:00 (00:00)
27 Antisquad Oct 31, 2014 $5.99N/A (N/A)50,000 .. 100,0000%00:00 (00:00)
28 The Superfluous May 19, 2017 $1.99N/A (N/A)0 .. 20,0000%00:00 (00:00)
29 Unearthed: Trail of Ibn Battuta - Episode 1 - Gold Edition Jan 3, 2014 $4.99N/A (N/A)20,000 .. 50,0000%00:00 (00:00)
30 Quarantine Feb 9, 2017 $9.99N/A (N/A)20,000 .. 50,0000%00:00 (00:00)
31 Meltdown Jun 5, 2014 $6.99N/A (N/A)100,000 .. 200,0000%00:00 (00:00)
32 ROD: Revolt Of Defense Aug 12, 2016 $0.99N/A (N/A)20,000 .. 50,0000%00:00 (00:00)
33 SPACECOM Sep 17, 2014 $9.99N/A (N/A/68%)50,000 .. 100,0000%00:00 (00:00)
34 Weird Hero Nov 18, 2016 $3.99N/A (N/A)0 .. 20,0000%00:00 (00:00)
35 Time Rifters Oct 21, 2014 $2.49N/A (N/A)20,000 .. 50,0000%00:00 (00:00)
36 Handsome Mr. Frog Aug 8, 2016 $0.99N/A (N/A)0 .. 20,0000%00:00 (00:00)
37 Wyv and Keep: The Temple of the Lost Idol Aug 8, 2014 $14.99N/A (N/A)0 .. 20,0000%00:00 (00:00)
38 FIVE: Champions of Canaan Sep 27, 2016 $3.99N/A (N/A)20,000 .. 50,0000%00:00 (00:00)
39 Jagged Alliance Flashback Oct 21, 2014 $19.99N/A (N/A)50,000 .. 100,0000%00:00 (00:00)
40 Battle Time Sep 29, 2016 $0.99N/A (N/A)50,000 .. 100,0000%00:00 (00:00)
41 Guns n Zombies Oct 30, 2014 $7.99N/A (N/A)100,000 .. 200,0000%00:00 (00:00)
42 Woodle Tree 2: Worlds Sep 16, 2016 $3.99N/A (N/A)20,000 .. 50,0000%00:00 (00:00)
43 Sneaky Sneaky Nov 12, 2014 $4.99N/A (N/A/63%)20,000 .. 50,0000%00:00 (00:00)
44 Slash or Die Jun 3, 2016 $5.99N/A (N/A)0 .. 20,0000%00:00 (00:00)
45 Platformines Mar 28, 2014 $9.99N/A (N/A/67%)50,000 .. 100,0000%00:00 (00:00)
46 Pigmentone Jul 8, 2016 $1.99N/A (N/A)0 .. 20,0000%00:00 (00:00)
47 Distant Worlds: Universe May 23, 2014 $59.99N/A (N/A/81%)50,000 .. 100,0000%00:00 (00:00)
48 System Crash Mar 10, 2016 $14.99N/A (N/A)0 .. 20,0000%00:00 (00:00)
49 Deadly 30 Jan 8, 2014 $4.99N/A (N/A)100,000 .. 200,0000%00:00 (00:00)
50 Sorcerer King: Rivals Sep 22, 2016 $19.99N/A (N/A)50,000 .. 100,0000%00:00 (00:00)
51 Bedlam Oct 13, 2015 N/AN/A (N/A/54%)100,000 .. 200,0000%00:00 (00:00)
52 Star Wolves 3: Civil War Mar 2, 2010 $4.99N/A (N/A)100,000 .. 200,0000%00:00 (00:00)
53 Kidnapped Aug 4, 2015 $2.99N/A (N/A)100,000 .. 200,0000%00:00 (00:00)
54 LEGO Indiana Jones 2: The Adventure Continues Feb 18, 2010 $19.99N/A (N/A/66%)50,000 .. 100,0000%00:00 (00:00)
55 Pike and Shot : Campaigns Aug 13, 2015 $39.99N/A (N/A)20,000 .. 50,0000%00:00 (00:00)
56 Theatre of War 2: Africa 1943 Jul 9, 2010 $4.99N/A (N/A/63%)50,000 .. 100,0000%00:00 (00:00)
57 E.T. Armies Mar 3, 2016 $14.99N/A (N/A/54%)50,000 .. 100,0000%00:00 (00:00)
58 Delta Force 2 Oct 31, 1999 $4.99N/A (N/A)100,000 .. 200,0000%00:00 (00:00)
59 Tcheco in the Castle of Lucio Jun 22, 2015 $0.99N/A (N/A)50,000 .. 100,0000%00:00 (00:00)
60 Theatre of War 2: Kursk 1943 Jul 9, 2010 $4.99N/A (N/A)50,000 .. 100,0000%00:00 (00:00)
61 Cross of the Dutchman Sep 10, 2015 $8.99N/A (N/A/59%)20,000 .. 50,0000%00:00 (00:00)
62 Disciples III - Renaissance Steam Special Edition Jul 16, 2010 $14.99N/A (N/A/56%)200,000 .. 500,0000%00:00 (00:00)
63 Rack N Ruin Sep 1, 2015 $9.99N/A (N/A)0 .. 20,0000%00:00 (00:00)
64 Making History II: The War of the World Aug 27, 2010 $14.99N/A (N/A/38%)50,000 .. 100,0000%00:00 (00:00)
65 Zombie Party Jun 10, 2016 $9.99N/A (N/A)100,000 .. 200,0000%00:00 (00:00)
66 Chaser Jul 16, 2010 $4.99N/A (N/A/66%)100,000 .. 200,0000%00:00 (00:00)
67 Valley Aug 24, 2016 $14.99N/A (N/A)200,000 .. 500,0000%00:00 (00:00)
68 RISK: Factions Q2 2021 N/AN/A (N/A/77%)0 .. 20,0000%00:00 (00:00)
69 Umihara Kawase Shun Nov 24, 2015 $11.99N/A (N/A)0 .. 20,0000%00:00 (00:00)
70 The Kings' Crusade Oct 8, 2010 $9.99N/A (N/A/71%)50,000 .. 100,0000%00:00 (00:00)
71 Incandescent Jun 30, 2015 $0.99N/A (N/A)20,000 .. 50,0000%00:00 (00:00)
72 Dead But Alive! Southern England Oct 2, 2015 $14.99N/A (N/A)0 .. 20,0000%00:00 (00:00)
73 King Arthur - The Role-playing Wargame Nov 24, 2009 $9.99N/A (N/A)200,000 .. 500,0000%00:00 (00:00)
74 Sword of the Stars II: Enhanced Edition Nov 30, 2012 $19.99N/A (N/A/65%)200,000 .. 500,0000%00:00 (00:00)
75 Zombie Killtime Aug 4, 2015 $1.99N/A (N/A)0 .. 20,0000%00:00 (00:00)
76 Elven Legacy Apr 7, 2009 $4.99N/A (N/A/71%)50,000 .. 100,0000%00:00 (00:00)
77 Island Defense Jul 23, 2015 $1.99N/A (N/A)50,000 .. 100,0000%00:00 (00:00)
78 The Haunted: Hells Reach Oct 24, 2011 $8.99N/A (N/A/51%)50,000 .. 100,0000%00:00 (00:00)
79 Lost in Paradise Aug 20, 2015 $2.99N/A (N/A)20,000 .. 50,0000%00:00 (00:00)
80 Majesty Gold HD Sep 4, 2009 $9.99N/A (N/A)100,000 .. 200,0000%00:00 (00:00)
81 Tiki Man Jun 4, 2015 $1.94N/A (N/A)50,000 .. 100,0000%00:00 (00:00)
82 Dead Rising 2: Off the Record Oct 11, 2011 $19.99N/A (N/A/66%)200,000 .. 500,0000%00:00 (00:00)
83 Dandy: Or a Brief Glimpse Into the Life of the Candy Alchemist Aug 4, 2015 $9.99N/A (N/A)0 .. 20,0000%00:00 (00:00)
84 Caster Mar 19, 2009 $1.99N/A (N/A)200,000 .. 500,0000%00:00 (00:00)
85 Biodrone Battle Jul 16, 2015 $1.99N/A (N/A)50,000 .. 100,0000%00:00 (00:00)
86 Magnifico Dec 2, 2014 $4.99N/A (N/A)0 .. 20,0000%00:00 (00:00)
87 Near Death Aug 2, 2016 $7.99N/A (N/A/70%)20,000 .. 50,0000%00:00 (00:00)
88 Toren May 11, 2015 $9.99N/A (N/A/57%)100,000 .. 200,0000%00:00 (00:00)
89 7th Legion Jan 1, 1997 $6.99N/A (N/A)0 .. 20,0000%00:00 (00:00)
90 Wickland Nov 14, 2014 $0.99N/A (N/A)50,000 .. 100,0000%00:00 (00:00)
91 Frozen Synapse Prime Nov 14, 2014 $24.99N/A (N/A/83%)100,000 .. 200,0000%00:00 (00:00)
92 War, the Game Jan 12, 2015 $6.99N/A (N/A/65%)20,000 .. 50,0000%00:00 (00:00)
93 BossConstructor Oct 24, 2016 $14.99N/A (N/A)0 .. 20,0000%00:00 (00:00)
94 Desert Ashes Nov 10, 2014 $4.99N/A (N/A)20,000 .. 50,0000%00:00 (00:00)
95 Robotex Nov 18, 2014 $4.99N/A (N/A)200,000 .. 500,0000%00:00 (00:00)
96 Run or Die Dec 11, 2014 $4.99N/A (N/A)20,000 .. 50,0000%00:00 (00:00)
97 Gold Rush! Anniversary Nov 7, 2014 $5.99N/A (N/A)50,000 .. 100,0000%00:00 (00:00)
98 The Hive Aug 25, 2016 $14.99N/A (N/A)0 .. 20,0000%00:00 (00:00)
99 There Came an Echo Feb 24, 2015 $14.99N/A (N/A/58%)20,000 .. 50,0000%00:00 (00:00)
100 Fallen: A2P Protocol Aug 14, 2015 $9.99N/A (N/A)20,000 .. 50,0000%00:00 (00:00)
101 Deadlings: Rotten Edition Nov 11, 2014 $3.99N/A (N/A)50,000 .. 100,0000%00:00 (00:00)
102 FEIST Jul 23, 2015 $9.99N/A (N/A/65%)20,000 .. 50,0000%00:00 (00:00)
103 Graviteam Tactics: Operation Star Mar 22, 2012 $29.99N/A (N/A)50,000 .. 100,0000%00:00 (00:00)
104 MinosMaze - The Minotaur's Labyrinth May 1, 2017 $4.99N/A (N/A)20,000 .. 50,0000%00:00 (00:00)
105 Abalone Apr 23, 2014 $6.99N/A (N/A)20,000 .. 50,0000%00:00 (00:00)
106 Western 1849 Reloaded Feb 10, 2017 $3.99N/A (N/A)0 .. 20,0000%00:00 (00:00)
107 Z Steel Soldiers Aug 1, 2014 $12.99N/A (N/A)50,000 .. 100,0000%00:00 (00:00)
108 Toadled Sep 22, 2016 $0.99N/A (N/A)50,000 .. 100,0000%00:00 (00:00)
109 Devil's Dare 悪魔の挑戦 Oct 21, 2014 $12.99N/A (N/A)20,000 .. 50,0000%00:00 (00:00)
110 Civil War: Battle of Petersburg Feb 8, 2017 $0.99N/A (N/A)20,000 .. 50,00011.11%00:20 (00:06)
111 Z Jul 4, 2014 $6.99N/A (N/A)100,000 .. 200,0000%00:00 (00:00)
112 Death's Hangover Jan 20, 2017 $4.99N/A (N/A)20,000 .. 50,0000%00:00 (00:00)
113 Infinity Runner Jul 14, 2014 $6.99N/A (N/A/56%)0 .. 20,0000%00:00 (00:00)
114 Defence to death May 11, 2017 $5.99N/A (N/A)20,000 .. 50,0000%00:00 (00:00)
115 Battle Group 2 Jun 13, 2014 $7.99N/A (N/A)50,000 .. 100,0000%00:00 (00:00)
116 Double Dragon IV Jan 30, 2017 $6.99N/A (N/A/50%)100,000 .. 200,0000%00:00 (00:00)
117 Battlepillars Gold Edition Apr 28, 2014 $4.99N/A (N/A)20,000 .. 50,0000%00:00 (00:00)
118 Sudden Strike 2 Gold Aug 30, 2002 $5.99N/A (N/A)50,000 .. 100,0000%00:00 (00:00)
119 Albedo: Eyes from Outer Space Apr 10, 2015 $14.99N/A (N/A/66%)20,000 .. 50,0000%00:00 (00:00)
120 Aegis Oct 6, 2016 $2.99N/A (N/A)20,000 .. 50,0000%00:00 (00:00)
121 Ubersoldier II Jul 22, 2008 $9.99N/A (N/A/62%)100,000 .. 200,0000%00:00 (00:00)
122 Panzer Tactics HD May 22, 2014 $9.99N/A (N/A/69%)20,000 .. 50,0000%00:00 (00:00)
123 Voodoo Vince: Remastered Apr 18, 2017 $14.99N/A (N/A/63%)20,000 .. 50,0000%00:00 (00:00)
124 Ku: Shroud of the Morrigan Mar 17, 2014 $4.99N/A (N/A)20,000 .. 50,0000%00:00 (00:00)
125 RIVE: Wreck, Hack, Die, Retry! Sep 13, 2016 $14.99N/A (N/A)50,000 .. 100,0000%00:00 (00:00)
126 Mysterium: A Psychic Clue Game Jan 12, 2017 $6.99N/A (N/A)50,000 .. 100,0000%00:00 (00:00)
127 Shadow Blade: Reload Aug 10, 2015 $9.99N/A (N/A/70%)20,000 .. 50,0000%00:00 (00:00)
128 BitMaster Oct 12, 2016 $2.99N/A (N/A)100,000 .. 200,0000%00:00 (00:00)
129 Spider: Rite of the Shrouded Moon Aug 6, 2015 $9.99N/A (N/A)20,000 .. 50,0000%00:00 (00:00)
130 Child Of Ault Jan 24, 2017 $9.99N/A (N/A)0 .. 20,0000%00:00 (00:00)
131 The Last Federation Apr 18, 2014 $19.99N/A (N/A/72%)50,000 .. 100,0000%00:00 (00:00)
132 Zombo Buster Rising Oct 2, 2016 $1.99N/A (N/A)20,000 .. 50,0000%00:00 (00:00)
133 Interplanetary May 12, 2015 N/AN/A (N/A)100,000 .. 200,0000%00:00 (00:00)
134 rooMaze Mar 3, 2017 $1.99N/A (N/A)50,000 .. 100,0000%00:00 (00:00)
135 Carrier Command: Gaea Mission Sep 28, 2012 $32.99N/A (N/A/60%)200,000 .. 500,0000%00:00 (00:00)
136 Rubber and Lead Sep 4, 2015 $4.99N/A (N/A)50,000 .. 100,0000%00:00 (00:00)
137 A Game of Thrones - Genesis Sep 28, 2011 $9.99N/A (N/A)100,000 .. 200,0000%00:00 (00:00)
138 After The End: The Harvest Jun 2, 2017 $4.99N/A (N/A)50,000 .. 100,0000%00:00 (00:00)
139 Star Ruler Sep 20, 2010 $7.99N/A (N/A)100,000 .. 200,0000%00:00 (00:00)
140 TRON RUN/r Feb 16, 2016 $19.99N/A (N/A)20,000 .. 50,0000%00:00 (00:00)
141 Age of Wonders Oct 2010 $5.99N/A (N/A)100,000 .. 200,0000%00:00 (00:00)
142 Vampire of the Sands Jul 17, 2015 $4.99N/A (N/A)0 .. 20,0000%00:00 (00:00)
143 Sengoku Sep 15, 2011 $9.99N/A (N/A/70%)100,000 .. 200,0000%00:00 (00:00)
144 Toy Odyssey: The Lost and Found Sep 20, 2016 $14.99N/A (N/A/66%)20,000 .. 50,0000%00:00 (00:00)
145 Age of Wonders Shadow Magic Oct 2010 $9.99N/A (N/A/82%)100,000 .. 200,0000%00:00 (00:00)
146 Vendetta - Curse of Raven's Cry Nov 20, 2015 $29.99N/A (N/A)200,000 .. 500,0000%00:00 (00:00)
147 Fate of the World Feb 28, 2011 $9.99N/A (N/A/70%)50,000 .. 100,0000%00:00 (00:00)
148 WARSHIFT Oct 12, 2016 $9.99N/A (N/A)20,000 .. 50,0000%00:00 (00:00)
149 Monday Night Combat Jan 24, 2011 $4.99N/A (N/A/82%)200,000 .. 500,0000%00:00 (00:00)
150 Rise: Battle Lines Nov 17, 2015 N/AN/A (N/A)0 .. 20,0000%00:00 (00:00)
151 A.R.E.S.: Extinction Agenda Jan 20, 2011 $4.99N/A (N/A/68%)50,000 .. 100,0000%00:00 (00:00)
152 Miracle Fly Oct 26, 2015 $7.99N/A (N/A)20,000 .. 50,0000%00:00 (00:00)
153 Swords and Soldiers HD Dec 2, 2010 $9.99N/A (N/A)200,000 .. 500,0000%00:00 (00:00)
154 FIVE: Guardians of David Nov 24, 2015 $9.99N/A (N/A/66%)0 .. 20,0000%00:00 (00:00)
155 Greed Corp Dec 10, 2010 $9.99N/A (N/A/76%)200,000 .. 500,0000%00:00 (00:00)
156 CTU: Counter Terrorism Unit Apr 22, 2016 $4.99N/A (N/A)20,000 .. 50,0000%00:00 (00:00)
157 Delve Deeper Sep 24, 2010 $4.99N/A (N/A)50,000 .. 100,0000%00:00 (00:00)
158 Mold on Pizza Sep 25, 2015 $5.99N/A (N/A)20,000 .. 50,0000%00:00 (00:00)
159 Atom Zombie Smasher Mar 14, 2011 $9.99N/A (N/A/75%)200,000 .. 500,0000%00:00 (00:00)
160 Ninjahtic Jul 6, 2015 $1.99N/A (N/A)0 .. 20,0000%00:00 (00:00)
161 Fantasy Wars Aug 6, 2010 $4.99N/A (N/A/67%)50,000 .. 100,0000%00:00 (00:00)
162 Ninjahtic Mind Tricks Jul 16, 2015 $1.99N/A (N/A)0 .. 20,0000%00:00 (00:00)
163 Patrician IV Sep 17, 2010 $14.99N/A (N/A/66%)100,000 .. 200,0000%00:00 (00:00)
164 Infection: Humanity's Last Gasp May 26, 2016 $9.99N/A (N/A)0 .. 20,0000%00:00 (00:00)
165 Men of War: Vietnam Sep 8, 2011 $7.99N/A (N/A/68%)200,000 .. 500,0000%00:00 (00:00)
166 Tic-Toc-Tower Sep 28, 2015 $2.99N/A (N/A)20,000 .. 50,0000%00:00 (00:00)
167 Dungeons Feb 10, 2011 $9.99N/A (N/A/65%)200,000 .. 500,0000%00:00 (00:00)
168 Pharaonic Apr 28, 2016 $14.99N/A (N/A)50,000 .. 100,0000%00:00 (00:00)
169 Kaiju-A-GoGo Apr 23, 2015 $9.99N/A (N/A)20,000 .. 50,0000%00:00 (00:00)
170 Death Ray Manta SE Sep 17, 2015 $1.99N/A (N/A)20,000 .. 50,0000%00:00 (00:00)
171 Fortified Feb 3, 2016 $14.99N/A (N/A)500,000 .. 1,000,0000%00:00 (00:00)
172 Headlander Jul 25, 2016 $19.99N/A (N/A/74%)50,000 .. 100,0000%00:00 (00:00)
173 Bet On Soldier Sep 26, 2005 $7.99N/A (N/A)100,000 .. 200,0000%00:00 (00:00)
174 Shadows of War Sep 19, 2014 $2.99N/A (N/A)20,000 .. 50,0000%00:00 (00:00)
175 Vietnam ‘65 Mar 5, 2015 $9.99N/A (N/A/81%)20,000 .. 50,0000%00:00 (00:00)
176 Armed with Wings: Rearmed Jun 1, 2017 $9.99N/A (N/A)20,000 .. 50,00020%00:02 (00:00)
177 Bloodsports.TV Mar 30, 2015 $9.99N/A (N/A/69%)100,000 .. 200,0000%00:00 (00:00)
178 Colonial Conquest Jul 28, 2015 $9.99N/A (N/A)0 .. 20,0000%00:00 (00:00)
179 Outcast 1.1 Dec 18, 2014 $5.99N/A (N/A)50,000 .. 100,0000%00:00 (00:00)
180 Flashpoint Campaigns: Red Storm Player's Edition Oct 9, 2013 $49.99N/A (N/A)0 .. 20,0000%00:00 (00:00)
181 Velocity 2X Aug 19, 2015 $19.99N/A (N/A)50,000 .. 100,0000%00:00 (00:00)
182 Executive Assault Jul 17, 2015 $12.99N/A (N/A)50,000 .. 100,0000%00:00 (00:00)
183 Strategy & Tactics: Wargame Collection Apr 22, 2016 $9.99N/A (N/A)20,000 .. 50,0000%00:00 (00:00)
184 Survivor Squad: Gauntlets Nov 16, 2015 $4.99N/A (N/A)20,000 .. 50,0000%00:00 (00:00)
185 Urja Jan 9, 2015 $9.99N/A (N/A)20,000 .. 50,0000%00:00 (00:00)
186 Battleplan: American Civil War Jul 4, 2014 $9.99N/A (N/A/66%)100,000 .. 200,0000%00:00 (00:00)
187 Strike Suit Zero: Director's Cut Apr 8, 2014 $19.99N/A (N/A)50,000 .. 100,0000%00:00 (00:00)
188 The Entente Gold Aug 11, 2003 $1.99N/A (N/A)50,000 .. 100,0000%00:00 (00:00)
189 Perimeter: Emperor's Testament Aug 29, 2006 $3.99N/A (N/A/72%)20,000 .. 50,0000%00:00 (00:00)
190 Enemy Mind Jun 6, 2014 $9.99N/A (N/A)100,000 .. 200,0000%00:00 (00:00)
191 Freight Tycoon Inc. Aug 15, 2007 $4.99N/A (N/A)20,000 .. 50,0000%00:00 (00:00)
192 Avoid - Sensory Overload Apr 8, 2014 $4.99N/A (N/A)20,000 .. 50,0000%00:00 (00:00)
193 Perimeter May 21, 2004 $3.99N/A (N/A/77%)20,000 .. 50,0000%00:00 (00:00)
194 Shadow Ops: Red Mercury Sep 17, 2004 $6.99N/A (N/A/61%)50,000 .. 100,0000%00:00 (00:00)
195 Marauder Sep 10, 2009 $9.99N/A (N/A)50,000 .. 100,0000%00:00 (00:00)
196 Hard Truck Apocalypse: Arcade / Ex Machina: Arcade May 24, 2007 $4.99N/A (N/A)20,000 .. 50,0000%00:00 (00:00)
197 Woolfe - The Red Hood Diaries Mar 17, 2015 $9.99N/A (N/A/55%)100,000 .. 200,0000%00:00 (00:00)
198 TY the Tasmanian Tiger 4 Sep 17, 2015 $5.99N/A (N/A)20,000 .. 50,0000%00:00 (00:00)
199 Strategic War in Europe Mar 21, 2014 $14.99N/A (N/A)20,000 .. 50,0000%00:00 (00:00)
200 8-Bit Commando Jul 27, 2011 $3.99N/A (N/A)100,000 .. 200,0000%00:00 (00:00)
201 Super Chibi Knight Jun 24, 2015 $4.99N/A (N/A)20,000 .. 50,0000%00:00 (00:00)
202 Rex Rocket Aug 5, 2014 $4.99N/A (N/A)20,000 .. 50,0000%00:00 (00:00)
203 Zeno Clash 2 Apr 30, 2013 $14.99N/A (N/A)200,000 .. 500,0000%00:00 (00:00)
204 Angry Video Game Nerd II: ASSimilation Mar 29, 2016 $9.99N/A (N/A)20,000 .. 50,0000%00:00 (00:00)
205 Impire Feb 14, 2013 $19.99N/A (N/A/45%)100,000 .. 200,0000%00:00 (00:00)
206 Reverse Crawl Sep 24, 2015 $5.99N/A (N/A)50,000 .. 100,0000%00:00 (00:00)
207 Jagged Alliance 2 - Wildfire Mar 8, 2004 $6.99N/A (N/A)500,000 .. 1,000,0000%00:00 (00:00)
208 Death by Game Show Jan 22, 2016 $1.99N/A (N/A)0 .. 20,0000%00:00 (00:00)
209 Men of War: Condemned Heroes Apr 12, 2012 $7.99N/A (N/A/57%)100,000 .. 200,0000%00:00 (00:00)
210 The Juicer Sep 6, 2012 $0.99N/A (N/A)20,000 .. 50,0000%00:00 (00:00)
211 Eufloria HD Oct 14, 2014 $14.99N/A (N/A)100,000 .. 200,0000%00:00 (00:00)
212 Galaxy Admirals Jan 17, 2017 $1.99N/A (N/A)100,000 .. 200,0000%00:00 (00:00)
213 Jagged Alliance: Crossfire Aug 24, 2012 $14.99N/A (N/A/63%)100,000 .. 200,0000%00:00 (00:00)
214 The Aquatic Adventure of the Last Human Jan 19, 2016 $9.99N/A (N/A/76%)50,000 .. 100,0000%00:00 (00:00)
215 Arma Tactics Oct 1, 2013 $8.99N/A (N/A/47%)200,000 .. 500,0000%00:00 (00:00)
216 Legend (1994) Apr 1, 1994 $4.99N/A (N/A)0 .. 20,0000%00:00 (00:00)
217 Warlock 2: The Exiled Apr 10, 2014 $19.99N/A (N/A/73%)100,000 .. 200,0000%00:00 (00:00)
218 The Political Machine 2016 Feb 4, 2016 N/AN/A (N/A)20,000 .. 50,0000%00:00 (00:00)
219 Rise of Venice Sep 27, 2013 $19.99N/A (N/A/66%)50,000 .. 100,0000%00:00 (00:00)
220 Corgi Warlock Dec 3, 2015 $1.99N/A (N/A)20,000 .. 50,0000%00:00 (00:00)
221 Check vs Mate Aug 16, 2012 $19.99N/A (N/A/69%)20,000 .. 50,0000%00:00 (00:00)
222 Crush Your Enemies Jul 13, 2016 $9.99N/A (N/A/63%)20,000 .. 50,0000%00:00 (00:00)
223 Demolition Inc. Sep 19, 2011 $5.99N/A (N/A)50,000 .. 100,0000%00:00 (00:00)
224 Monster Monpiece Mar 14, 2017 $9.99N/A (N/A)20,000 .. 50,0000%00:00 (00:00)
225 Conflict Desert Storm Sep 13, 2002 $6.99N/A (N/A/56%)100,000 .. 200,0000%00:00 (00:00)
226 Lethe - Episode One Aug 1, 2016 $14.99N/A (N/A)0 .. 20,0000%00:00 (00:00)
227 A Game of Dwarves Oct 23, 2012 $9.99N/A (N/A/60%)50,000 .. 100,0000%00:00 (00:00)
228 Little Big Adventure 2 Oct 20, 2015 $3.99N/A (N/A)50,000 .. 100,0000%00:00 (00:00)
229 Call of Duty: Black Ops - Mac Edition Sep 27, 2012 N/AN/A (N/A)0 .. 20,0000%00:00 (00:00)
230 Knight Adventure Oct 15, 2015 $0.99N/A (N/A)20,000 .. 50,0000%00:00 (00:00)
231 Dungeons - The Dark Lord Sep 27, 2011 $19.99N/A (N/A/72%)100,000 .. 200,0000%00:00 (00:00)
232 Ace of Protectors Jun 27, 2016 $1.99N/A (N/A)20,000 .. 50,0000%00:00 (00:00)
233 Painkiller Hell & Damnation Oct 31, 2012 $19.99N/A (N/A/64%)200,000 .. 500,0000%00:00 (00:00)
234 Run Rabbit Run Mar 31, 2016 $3.99N/A (N/A)0 .. 20,0000%00:00 (00:00)
235 Disciples III - Resurrection Oct 11, 2011 $14.99N/A (N/A/63%)100,000 .. 200,0000%00:00 (00:00)
236 The Seven Years War (1756-1763) Oct 30, 2015 $19.99N/A (N/A)20,000 .. 50,0000%00:00 (00:00)
237 Supercharged Robot VULKAISER Jun 4, 2015 $4.99N/A (N/A)20,000 .. 50,0000%00:00 (00:00)
238 Lux Delux May 1, 2015 $9.99N/A (N/A)50,000 .. 100,0000%00:00 (00:00)
239 No Pineapple Left Behind Feb 18, 2016 $6.99N/A (N/A/59%)0 .. 20,0000%00:00 (00:00)
240 CRYPTARK Jun 20, 2017 $14.99N/A (N/A/80%)0 .. 20,00014.29%00:11 (00:03)
241 Planet of the Eyes Aug 24, 2015 $9.99N/A (N/A/66%)50,000 .. 100,0000%00:00 (00:00)
242 Gratuitous Space Battles 2 Apr 16, 2015 $9.99N/A (N/A)20,000 .. 50,0000%00:00 (00:00)
243 Ceres Oct 16, 2015 $19.99N/A (N/A/74%)0 .. 20,0000%00:00 (00:00)
244 David. Mar 14, 2014 $1.99N/A (N/A)100,000 .. 200,0000%00:00 (00:00)
245 Cultures - 8th Wonder of the World Mar 26, 2015 $4.99N/A (N/A)100,000 .. 200,0000%00:00 (00:00)
246 The Bluecoats: North vs South (2012) May 10, 2012 N/AN/A (N/A)200,000 .. 500,0000%00:00 (00:00)
247 Fort Meow Jun 25, 2015 $7.99N/A (N/A)20,000 .. 50,0000%00:00 (00:00)
248 Rise & Shine Jan 13, 2017 $14.99N/A (N/A)50,000 .. 100,0000%00:00 (00:00)
249 Stay Dead Evolution Feb 4, 2015 $5.99N/A (N/A)20,000 .. 50,0000%00:00 (00:00)
250 Hyperspace Pinball Sep 30, 2015 $2.99N/A (N/A)0 .. 20,0000%00:00 (00:00)
251 Super Cyborg Jul 8, 2015 $4.99N/A (N/A)20,000 .. 50,0000%00:00 (00:00)
252 Burstfire Sep 24, 2015 N/AN/A (N/A)50,000 .. 100,0000%00:00 (00:00)
253 Dustoff Heli Rescue Mar 6, 2015 $3.99N/A (N/A)20,000 .. 50,0000%00:00 (00:00)
254 Royal Defense Nov 6, 2014 $4.99N/A (N/A)100,000 .. 200,0000%00:00 (00:00)
255 Space Colony: Steam Edition Apr 30, 2015 $14.99N/A (N/A/74%)200,000 .. 500,0000%00:00 (00:00)
256 Smugglers 5 Apr 11, 2014 $9.99N/A (N/A)20,000 .. 50,0000%00:00 (00:00)
257 Knightmare Tower Jun 16, 2014 $3.99N/A (N/A)0 .. 20,0000%00:00 (00:00)
258 Elliot Quest Nov 10, 2014 $9.99N/A (N/A)20,000 .. 50,0000%00:00 (00:00)
259 Victory At Sea Aug 8, 2014 $24.99N/A (N/A)50,000 .. 100,0000%00:00 (00:00)
260 Merchants of Kaidan Nov 10, 2014 $14.99N/A (N/A)100,000 .. 200,0000%00:00 (00:00)
261 Orbital Gear Aug 7, 2014 $9.99N/A (N/A/59%)200,000 .. 500,0000%00:00 (00:00)
262 Olympia Rising Jul 23, 2015 $4.99N/A (N/A)20,000 .. 50,0000%00:00 (00:00)
263 Rooks Keep Dec 5, 2014 $7.99N/A (N/A)0 .. 20,0000%00:00 (00:00)
264 Brigade E5: New Jagged Union Oct 17, 2006 $3.99N/A (N/A/41%)0 .. 20,0000%00:00 (00:00)
265 Collapse Sep 25, 2008 $19.99N/A (N/A)50,000 .. 100,0000%00:00 (00:00)
266 Magnetic By Nature Nov 10, 2014 $0.99N/A (N/A)0 .. 20,0000%00:00 (00:00)
267 7,62 High Calibre Aug 24, 2007 $4.99N/A (N/A)50,000 .. 100,0000%00:00 (00:00)
268 Viktor Jun 13, 2014 $7.99N/A (N/A)20,000 .. 50,0000%00:00 (00:00)
269 The Fall May 30, 2014 $9.99N/A (N/A/76%)200,000 .. 500,0000%00:00 (00:00)
270 Zombies on a Plane Mar 25, 2016 $4.99N/A (N/A)20,000 .. 50,0000%00:00 (00:00)
271 Bleed Jul 3, 2013 $4.99N/A (N/A)100,000 .. 200,0000%00:00 (00:00)
272 A Blind Legend Apr 7, 2016 $6.99N/A (N/A)20,000 .. 50,0000%00:00 (00:00)
273 Armada 2526 Gold Edition Feb 28, 2013 $19.99N/A (N/A/66%)50,000 .. 100,0000%00:00 (00:00)
274 The Legend of Dark Witch Dec 1, 2015 $4.99N/A (N/A)20,000 .. 50,0000%00:00 (00:00)
275 Ittle Dew Jul 23, 2013 $9.99N/A (N/A/67%)100,000 .. 200,0000%00:00 (00:00)
276 Star Realms Mar 8, 2016 FreeN/A (N/A)100,000 .. 200,0000%00:00 (00:00)
277 Anodyne Mar 22, 2013 $9.99N/A (N/A/75%)100,000 .. 200,0000%00:00 (00:00)
278 Militia Dec 2, 2015 $5.99N/A (N/A)0 .. 20,0000%00:00 (00:00)
279 CastleStorm Jul 29, 2013 $9.99N/A (N/A/73%)100,000 .. 200,0000%00:00 (00:00)
280 Legends of Callasia Jun 10, 2016 $14.99N/A (N/A)50,000 .. 100,0000%00:00 (00:00)
281 Horizon Feb 6, 2014 $29.99N/A (N/A/58%)50,000 .. 100,0000%00:00 (00:00)
282 1775: Rebellion Sep 29, 2016 $24.99N/A (N/A)0 .. 20,0000%00:00 (00:00)
283 Guncraft Aug 9, 2013 $14.99N/A (N/A/73%)50,000 .. 100,0000%00:00 (00:00)
284 Control Craft 2 Feb 15, 2016 $1.99N/A (N/A)20,000 .. 50,0000%00:00 (00:00)
285 Anomaly 2 May 15, 2013 $14.99N/A (N/A/77%)100,000 .. 200,0000%00:00 (00:00)
286 Megamagic: Wizards of the Neon Age Apr 20, 2016 $9.99N/A (N/A/67%)20,000 .. 50,0000%00:00 (00:00)
287 In Verbis Virtus Apr 3, 2015 $19.99N/A (N/A)100,000 .. 200,0000%00:00 (00:00)
288 Story Of the Survivor Feb 17, 2016 $4.99N/A (N/A)0 .. 20,0000%00:00 (00:00)
289 Fist Puncher Jun 21, 2013 $9.99N/A (N/A/73%)20,000 .. 50,0000%00:00 (00:00)
290 Neon Chrome Apr 28, 2016 $14.99N/A (N/A/74%)0 .. 20,0000%00:00 (00:00)
291 Sang-Froid - Tales of Werewolves Apr 5, 2013 FreeN/A (N/A/79%)200,000 .. 500,0000%00:00 (00:00)
292 Pharaoh Rebirth+ Mar 17, 2016 $9.99N/A (N/A)0 .. 20,0000%00:00 (00:00)
293 Skyward Collapse May 23, 2013 $4.99N/A (N/A/64%)100,000 .. 200,0000%00:00 (00:00)
294 Super Helmets on Fire DX Ultra Edition Plus Alpha Feb 15, 2016 FreeN/A (N/A)0 .. 20,0000%00:00 (00:00)
295 Scourge: Outbreak Apr 2, 2014 $5.99N/A (N/A)100,000 .. 200,0000%00:00 (00:00)
296 Goblin Defenders: Steel‘n’ Wood Aug 21, 2013 $2.99N/A (N/A)20,000 .. 50,0000%00:00 (00:00)
297 7 Grand Steps: What Ancients Begat Jun 7, 2013 $19.99N/A (N/A)20,000 .. 50,0000%00:00 (00:00)
298 Phoning Home Feb 7, 2017 $1.99N/A (N/A/61%)50,000 .. 100,0000%00:00 (00:00)
299 March of the Eagles Feb 18, 2013 $19.99N/A (N/A/71%)50,000 .. 100,0000%00:00 (00:00)
300 Gurgamoth Feb 16, 2016 $9.99N/A (N/A)20,000 .. 50,0000%00:00 (00:00)
301 PAC-MAN and the Ghostly Adventures Oct 29, 2013 N/AN/A (N/A)0 .. 20,0000%00:00 (00:00)
302 Marvel: Ultimate Alliance 2 Jul 26, 2016 N/AN/A (N/A)20,000 .. 50,0000%00:00 (00:00)
303 Skulls of the Shogun Jul 29, 2013 $9.99N/A (N/A/72%)100,000 .. 200,0000%00:00 (00:00)
304 Into the Void Dec 4, 2015 $1.99N/A (N/A)20,000 .. 50,0000%00:00 (00:00)
305 Once Bitten, Twice Dead! Jul 17, 2015 $4.99N/A (N/A)20,000 .. 50,0000%00:00 (00:00)
306 BloodRayne (Legacy) Sep 14, 2006 N/AN/A (N/A/65%)50,000 .. 100,0000%00:00 (00:00)
307 Trigger Runners Mar 3, 2016 $1.99N/A (N/A)0 .. 20,0000%00:00 (00:00)
308 Heroes of Might & Magic V: Hammers of Fate Oct 10, 2008 $9.99N/A (N/A/66%)50,000 .. 100,0000%00:00 (00:00)
309 The Living Dungeon Nov 2, 2015 $9.99N/A (N/A)0 .. 20,0000%00:00 (00:00)
310 CivCity: Rome Apr 6, 2007 $9.99N/A (N/A/67%)50,000 .. 100,0000%00:00 (00:00)
311 Albino Lullaby: Episode 1 Sep 15, 2015 $9.99N/A (N/A)20,000 .. 50,0000%00:00 (00:00)
312 Nuclear Dawn Sep 26, 2011 $9.99N/A (N/A/71%)200,000 .. 500,0000%00:00 (00:00)
313 Devils & Demons Oct 6, 2015 $9.99N/A (N/A)0 .. 20,0000%00:00 (00:00)
314 Civilization IV: Warlords Jul 24, 2006 $4.99N/A (N/A/84%)1,000,000 .. 2,000,0000%00:00 (00:00)
315 Commander Cool 2 Dec 17, 2015 $2.99N/A (N/A)50,000 .. 100,0000%00:00 (00:00)
316 Tom Clancy's EndWar Feb 25, 2009 $9.99N/A (N/A/68%)100,000 .. 200,0000%00:00 (00:00)
317 AirMech Command Mar 8, 2017 $14.99N/A (N/A)0 .. 20,0000%00:00 (00:00)
318 Ghost Master Aug 23, 2003 $4.99N/A (N/A/81%)100,000 .. 200,0000%00:00 (00:00)
319 Cuban Missile Crisis May 6, 2005 $4.99N/A (N/A)20,000 .. 50,0000%00:00 (00:00)
320 Spectromancer Oct 15, 2008 $9.99N/A (N/A)20,000 .. 50,0000%00:00 (00:00)
321 Redemption: Saints And Sinners Nov 18, 2016 $0.49N/A (N/A)20,000 .. 50,0000%00:00 (00:00)
322 Making History: The Calm & the Storm Mar 13, 2007 $4.99N/A (N/A/70%)50,000 .. 100,0000%00:00 (00:00)
323 Interloper May 21, 2015 FreeN/A (N/A/77%)20,000 .. 50,0000%00:00 (00:00)
324 Earth Defense Force: Insect Armageddon Dec 14, 2011 $9.99N/A (N/A/69%)50,000 .. 100,0000%00:00 (00:00)
325 Curse of the Crescent Isle DX Aug 21, 2015 $0.99N/A (N/A)0 .. 20,0000%00:00 (00:00)
326 Lost Planet: Extreme Condition Jun 26, 2007 $14.99N/A (N/A/66%)200,000 .. 500,0000%00:00 (00:00)
327 Kick Ass Commandos Nov 17, 2016 $4.99N/A (N/A)0 .. 20,0000%00:00 (00:00)
328 Dangerous Waters Feb 7, 2006 $14.99N/A (N/A/82%)50,000 .. 100,0000%00:00 (00:00)
329 King of Dragon Pass Jul 28, 2015 $11.99N/A (N/A)50,000 .. 100,0000%00:00 (00:00)
330 Warhammer 40,000: Dawn of War – Winter Assault Aug 7, 2007 $12.99N/A (N/A)500,000 .. 1,000,0000%00:00 (00:00)
331 Assassin’s Creed Chronicles: India Jan 12, 2016 $9.99N/A (N/A)50,000 .. 100,0000%00:00 (00:00)
332 Act of War: Direct Action Mar 14, 2005 $2.99N/A (N/A/82%)50,000 .. 100,0000%00:00 (00:00)
333 Urban Empire Jan 20, 2017 $29.99N/A (N/A/62%)100,000 .. 200,0000%00:00 (00:00)
334 Supreme Commander Sep 28, 2011 $12.99N/A (N/A/86%)1,000,000 .. 2,000,0000%00:00 (00:00)
335 Nightside Apr 2, 2015 $4.99N/A (N/A)20,000 .. 50,0000%00:00 (00:00)
336 Advent Rising Sep 14, 2006 $9.99N/A (N/A/70%)50,000 .. 100,0000%00:00 (00:00)
337 Bombshell Jan 29, 2016 $34.99N/A (N/A/43%)50,000 .. 100,0000%00:00 (00:00)
338 BC Kings Jun 16, 2009 $4.99N/A (N/A)20,000 .. 50,0000%00:00 (00:00)
339 Bloodbath Jun 16, 2014 $14.99N/A (N/A)0 .. 20,0000%00:00 (00:00)
340 Othello Aug 5, 2016 N/AN/A (N/A)0 .. 20,0000%00:00 (00:00)
341 Kick-Ass 2 Aug 15, 2014 $19.99N/A (N/A)20,000 .. 50,0000%00:00 (00:00)
342 Gold Rush! Classic Dec 23, 1988 $2.99N/A (N/A)100,000 .. 200,0000%00:00 (00:00)
343 Aeon Command Jul 3, 2014 $2.99N/A (N/A)20,000 .. 50,0000%00:00 (00:00)
344 Airship Dragoon Aug 26, 2014 $19.99N/A (N/A)0 .. 20,0000%00:00 (00:00)
345 Blue Estate The Game Apr 8, 2015 $12.99N/A (N/A/59%)50,000 .. 100,0000%00:00 (00:00)
346 The Nightmare Cooperative Jul 16, 2014 $4.99N/A (N/A)20,000 .. 50,0000%00:00 (00:00)
347 World War 2: Time of Wrath Jun 15, 2009 $4.99N/A (N/A)20,000 .. 50,0000%00:00 (00:00)
348 The Way May 20, 2016 $14.99N/A (N/A/67%)100,000 .. 200,0000%00:00 (00:00)
349 Heavy Fire: Afghanistan Aug 15, 2014 $2.99N/A (N/A)50,000 .. 100,0000%00:00 (00:00)
350 The Few Jun 18, 2014 $7.99N/A (N/A)50,000 .. 100,0000%00:00 (00:00)
351 Battle Academy 2: Eastern Front Sep 12, 2014 $39.99N/A (N/A/78%)0 .. 20,0000%00:00 (00:00)
352 Psichodelya Aug 8, 2014 N/AN/A (N/A)50,000 .. 100,0000%00:00 (00:00)
353 Will Fight for Food: Super Actual Sellout: Game of the Hour Apr 22, 2015 $4.99N/A (N/A)20,000 .. 50,0000%00:00 (00:00)
354 Momodora III Jul 1, 2014 $1.99N/A (N/A)50,000 .. 100,0000%00:00 (00:00)
355 Nux Dec 26, 2006 $6.99N/A (N/A)100,000 .. 200,0000%00:00 (00:00)
356 Onechanbara Z2: Chaos Jun 2, 2016 $39.99N/A (N/A)20,000 .. 50,0000%00:00 (00:00)
357 Dusty Revenge:Co-Op Edition Feb 17, 2014 $14.99N/A (N/A)50,000 .. 100,0000%00:00 (00:00)
358 Auro: A Monster-Bumping Adventure Apr 13, 2016 $6.99N/A (N/A)20,000 .. 50,0000%00:00 (00:00)
359 Disney Epic Mickey 2: The Power of Two Nov 18, 2012 $19.99N/A (N/A)20,000 .. 50,0000%00:00 (00:00)
360 GIBZ Apr 7, 2017 $7.99N/A (N/A)20,000 .. 50,0000%00:00 (00:00)
361 Hot Tin Roof: The Cat That Wore A Fedora Feb 20, 2015 $14.99N/A (N/A/66%)50,000 .. 100,0000%00:00 (00:00)
362 Codex of Victory Mar 16, 2017 $14.99N/A (N/A)20,000 .. 50,0000%00:00 (00:00)
363 Zafehouse: Diaries Sep 6, 2013 $1.99N/A (N/A)50,000 .. 100,0000%00:00 (00:00)
364 REDCON Apr 22, 2016 $5.99N/A (N/A)50,000 .. 100,0000%00:00 (00:00)
365 MoonBase Commander Aug 13, 2002 $5.99N/A (N/A/77%)20,000 .. 50,0000%00:00 (00:00)
366 She Wants Me Dead May 13, 2016 $7.99N/A (N/A)20,000 .. 50,0000%00:00 (00:00)
367 Livelock Aug 30, 2016 $9.99N/A (N/A/73%)100,000 .. 200,0000%00:00 (00:00)
368 Assault on Arnhem Mar 11, 2016 $9.99N/A (N/A)20,000 .. 50,0000%00:00 (00:00)
369 Silent Storm Gold Edition Sep 9, 2004 $9.99N/A (N/A/83%)200,000 .. 500,0000%00:00 (00:00)
370 Rocketbirds 2 Evolution Jan 26, 2017 $9.99N/A (N/A)20,000 .. 50,0000%00:00 (00:00)
371 Chainsaw Warrior Oct 7, 2013 $4.99N/A (N/A)20,000 .. 50,0000%00:00 (00:00)
372 Ace of Seafood Apr 8, 2016 $11.99N/A (N/A)50,000 .. 100,0000%00:00 (00:00)
373 PixelJunk Shooter Nov 11, 2013 $8.99N/A (N/A/73%)100,000 .. 200,0000%00:00 (00:00)
374 Urban Pirate Jun 17, 2016 $6.99N/A (N/A)0 .. 20,0000%00:00 (00:00)
375 Stick it to The Man! Dec 13, 2013 $7.99N/A (N/A/83%)20,000 .. 50,0000%00:00 (00:00)
376 Meridian: Squad 22 Aug 11, 2016 $14.99N/A (N/A)0 .. 20,0000%00:00 (00:00)
377 Divinity: Dragon Commander Aug 6, 2013 $39.99N/A (N/A)200,000 .. 500,0000%00:00 (00:00)
378 Purgatory Jun 22, 2016 $0.99N/A (N/A)50,000 .. 100,0000%00:00 (00:00)
379 Master Reboot Oct 29, 2013 $12.99N/A (N/A/59%)50,000 .. 100,0000%00:00 (00:00)
380 Mad Bullets Jun 10, 2016 $2.99N/A (N/A)0 .. 20,0000%00:00 (00:00)
381 Sid Meier’s Ace Patrol Aug 27, 2013 $4.99N/A (N/A)200,000 .. 500,0000%00:00 (00:00)
382 Age of Gladiators Feb 25, 2016 $9.99N/A (N/A)100,000 .. 200,0000%00:00 (00:00)
383 Anomaly Warzone Earth Mobile Campaign Nov 6, 2013 $4.99N/A (N/A)100,000 .. 200,0000%00:00 (00:00)
384 Magic Quest May 6, 2016 $1.99N/A (N/A)50,000 .. 100,0000%00:00 (00:00)
385 VelocityUltra Dec 12, 2013 $9.99N/A (N/A)20,000 .. 50,0000%00:00 (00:00)
386 DreamBreak Jul 21, 2016 $6.99N/A (N/A/46%)20,000 .. 50,0000%00:00 (00:00)
387 Zombie Tycoon 2: Brainhov's Revenge Dec 9, 2013 $4.99N/A (N/A)50,000 .. 100,0000%00:00 (00:00)
388 Odd||Even Apr 6, 2016 $0.99N/A (N/A)0 .. 20,0000%00:00 (00:00)
389 ENSLAVED: Odyssey to the West Premium Edition Oct 24, 2013 $19.99N/A (N/A/70%)200,000 .. 500,0000%00:00 (00:00)
390 Spooky Cats Jun 4, 2015 $2.99N/A (N/A)20,000 .. 50,0000%00:00 (00:00)
391 Disposable Heroes Oct 1, 2015 $1.99N/A (N/A)20,000 .. 50,0000%00:00 (00:00)
392 Cast of the Seven Godsends - Redux Jul 20, 2015 $9.99N/A (N/A)20,000 .. 50,0000%00:00 (00:00)
393 Apocalypse: Party's Over May 30, 2016 N/AN/A (N/A)0 .. 20,0000%00:00 (00:00)
394 Weapon of Choice Sep 23, 2015 $4.99N/A (N/A)0 .. 20,0000%00:00 (00:00)
395 Pongo May 14, 2015 $0.99N/A (N/A)50,000 .. 100,0000%00:00 (00:00)
396 Explosionade Sep 23, 2015 $3.99N/A (N/A)0 .. 20,0000%00:00 (00:00)
397 Blacksea Odyssey Jun 1, 2016 $9.99N/A (N/A/74%)20,000 .. 50,0000%00:00 (00:00)
398 Defend The Highlands Nov 6, 2015 $9.99N/A (N/A)200,000 .. 500,0000%00:00 (00:00)
399 Riddled Corpses Jun 2, 2015 $7.99N/A (N/A)20,000 .. 50,0000%00:00 (00:00)
400 NOBUNAGA'S AMBITION: Sphere of Influence - Ascension / 信長の野望・創造 戦国立志伝 Mar 23, 2016 $59.99N/A (N/A)100,000 .. 200,0000%00:00 (00:00)
401 Jim Power -The Lost Dimension Dec 10, 1993 $4.99N/A (N/A)0 .. 20,0000%00:00 (00:00)
402 TASTEE: Lethal Tactics May 10, 2016 $14.99N/A (N/A)20,000 .. 50,0000%00:00 (00:00)
403 Demons with Shotguns Apr 25, 2016 $9.99N/A (N/A)0 .. 20,0000%00:00 (00:00)
404 Starchaser: Priestess of the Night Sky Jul 24, 2015 $9.99N/A (N/A)0 .. 20,0000%00:00 (00:00)
405 Gnumz: Masters of Defense Dec 21, 2015 $4.99N/A (N/A)200,000 .. 500,0000%00:00 (00:00)
406 Below Kryll Sep 7, 2015 $4.99N/A (N/A)0 .. 20,0000%00:00 (00:00)

Tags over time:

Access restricted.

This feature is only available to users with special access rights. Sorry.

If you want to proceed, you need to register or log in first and then back Steam Spy on Patreon. Look for Indie or Pro pledge.

Don't forget to use the same email as on Steam Spy!

If you've recently backed Steam Spy on Patreon, please note, that it might take around 15 minutes for your access rights to sync. In most cases you'll need to re-login on Steam Spy too.

Owners of this game also own:

Access restricted.

This feature is only available to users with special access rights. Sorry.

If you want to proceed, you need to register or log in first and then back Steam Spy on Patreon. Look for Indie or Pro pledge.

Don't forget to use the same email as on Steam Spy!

If you've recently backed Steam Spy on Patreon, please note, that it might take around 15 minutes for your access rights to sync. In most cases you'll need to re-login on Steam Spy too.

Playtime distribution:

Access restricted.

This feature is only available to users with special access rights. Sorry.

If you want to proceed, you need to register or log in first and then back Steam Spy on Patreon. Look for Indie or Pro pledge.

Don't forget to use the same email as on Steam Spy!

If you've recently backed Steam Spy on Patreon, please note, that it might take around 15 minutes for your access rights to sync. In most cases you'll need to re-login on Steam Spy too.

Playtime (2 weeks):

Access restricted.

This feature is only available to users with special access rights. Sorry.

If you want to proceed, you need to register or log in first and then back Steam Spy on Patreon. Look for Indie or Pro pledge.

Don't forget to use the same email as on Steam Spy!

If you've recently backed Steam Spy on Patreon, please note, that it might take around 15 minutes for your access rights to sync. In most cases you'll need to re-login on Steam Spy too.

User reviews:

Login required.

Please register or log in to see this information.